sensor_id;sensor_type;location;lat;lon;timestamp;P1;durP1;ratioP1;P2;durP2;ratioP2
5801;SDS011;2927;49.366;8.530;2023-11-19T00:02:10;2.07;;;1.97;;
5801;SDS011;2927;49.366;8.530;2023-11-19T00:04:38;4.57;;;2.20;;
5801;SDS011;2927;49.366;8.530;2023-11-19T00:07:04;2.73;;;2.10;;
5801;SDS011;2927;49.366;8.530;2023-11-19T00:09:32;3.13;;;2.13;;
5801;SDS011;2927;49.366;8.530;2023-11-19T00:12:02;2.70;;;1.80;;
5801;SDS011;2927;49.366;8.530;2023-11-19T00:14:29;4.63;;;2.00;;
5801;SDS011;2927;49.366;8.530;2023-11-19T00:16:55;2.30;;;1.93;;
5801;SDS011;2927;49.366;8.530;2023-11-19T00:19:21;2.97;;;2.00;;
5801;SDS011;2927;49.366;8.530;2023-11-19T00:21:47;4.87;;;1.67;;
5801;SDS011;2927;49.366;8.530;2023-11-19T00:24:12;1.20;;;1.10;;
5801;SDS011;2927;49.366;8.530;2023-11-19T00:26:41;1.83;;;1.10;;
5801;SDS011;2927;49.366;8.530;2023-11-19T00:29:06;2.90;;;1.03;;
5801;SDS011;2927;49.366;8.530;2023-11-19T00:31:32;0.73;;;0.73;;
5801;SDS011;2927;49.366;8.530;2023-11-19T00:33:58;1.30;;;1.20;;
5801;SDS011;2927;49.366;8.530;2023-11-19T00:36:23;0.70;;;0.70;;
5801;SDS011;2927;49.366;8.530;2023-11-19T00:38:49;1.23;;;0.80;;
5801;SDS011;2927;49.366;8.530;2023-11-19T00:41:15;0.63;;;0.63;;
5801;SDS011;2927;49.366;8.530;2023-11-19T00:43:44;1.10;;;0.90;;
5801;SDS011;2927;49.366;8.530;2023-11-19T00:46:09;0.73;;;0.73;;
5801;SDS011;2927;49.366;8.530;2023-11-19T00:48:38;1.10;;;1.00;;
5801;SDS011;2927;49.366;8.530;2023-11-19T00:51:04;0.93;;;0.90;;
5801;SDS011;2927;49.366;8.530;2023-11-19T00:53:30;2.83;;;1.00;;
5801;SDS011;2927;49.366;8.530;2023-11-19T00:55:57;1.33;;;0.80;;
5801;SDS011;2927;49.366;8.530;2023-11-19T00:58:23;2.40;;;1.17;;
5801;SDS011;2927;49.366;8.530;2023-11-19T01:00:48;0.57;;;0.57;;
5801;SDS011;2927;49.366;8.530;2023-11-19T01:03:14;4.93;;;0.70;;
5801;SDS011;2927;49.366;8.530;2023-11-19T01:05:40;3.60;;;0.70;;
5801;SDS011;2927;49.366;8.530;2023-11-19T01:08:06;0.77;;;0.77;;
5801;SDS011;2927;49.366;8.530;2023-11-19T01:10:32;0.80;;;0.80;;
5801;SDS011;2927;49.366;8.530;2023-11-19T01:12:57;2.67;;;1.27;;
5801;SDS011;2927;49.366;8.530;2023-11-19T01:15:23;2.40;;;1.13;;
5801;SDS011;2927;49.366;8.530;2023-11-19T01:17:49;0.93;;;0.90;;
5801;SDS011;2927;49.366;8.530;2023-11-19T01:20:15;4.10;;;0.80;;
5801;SDS011;2927;49.366;8.530;2023-11-19T01:22:41;1.03;;;1.03;;
5801;SDS011;2927;49.366;8.530;2023-11-19T01:25:07;0.70;;;0.70;;
5801;SDS011;2927;49.366;8.530;2023-11-19T01:27:33;1.63;;;0.83;;
5801;SDS011;2927;49.366;8.530;2023-11-19T01:30:00;0.97;;;0.80;;
5801;SDS011;2927;49.366;8.530;2023-11-19T01:32:30;1.07;;;1.07;;
5801;SDS011;2927;49.366;8.530;2023-11-19T01:34:56;1.83;;;1.27;;
5801;SDS011;2927;49.366;8.530;2023-11-19T01:37:23;1.23;;;0.80;;
5801;SDS011;2927;49.366;8.530;2023-11-19T01:39:48;0.73;;;0.73;;
5801;SDS011;2927;49.366;8.530;2023-11-19T01:42:14;1.20;;;1.10;;
5801;SDS011;2927;49.366;8.530;2023-11-19T01:44:40;0.90;;;0.90;;
5801;SDS011;2927;49.366;8.530;2023-11-19T01:47:06;0.70;;;0.70;;
5801;SDS011;2927;49.366;8.530;2023-11-19T01:49:33;2.33;;;0.70;;
5801;SDS011;2927;49.366;8.530;2023-11-19T01:51:59;0.70;;;0.70;;
5801;SDS011;2927;49.366;8.530;2023-11-19T01:54:26;0.57;;;0.57;;
5801;SDS011;2927;49.366;8.530;2023-11-19T01:56:53;0.80;;;0.80;;
5801;SDS011;2927;49.366;8.530;2023-11-19T01:59:21;2.63;;;0.83;;
5801;SDS011;2927;49.366;8.530;2023-11-19T02:01:51;0.60;;;0.60;;
5801;SDS011;2927;49.366;8.530;2023-11-19T02:04:18;0.60;;;0.60;;
5801;SDS011;2927;49.366;8.530;2023-11-19T02:06:45;1.40;;;0.73;;
5801;SDS011;2927;49.366;8.530;2023-11-19T02:09:14;0.53;;;0.53;;
5801;SDS011;2927;49.366;8.530;2023-11-19T02:11:44;0.83;;;0.83;;
5801;SDS011;2927;49.366;8.530;2023-11-19T02:14:10;0.70;;;0.70;;
5801;SDS011;2927;49.366;8.530;2023-11-19T02:16:36;0.70;;;0.70;;
5801;SDS011;2927;49.366;8.530;2023-11-19T02:19:01;0.70;;;0.70;;
5801;SDS011;2927;49.366;8.530;2023-11-19T02:21:28;0.90;;;0.90;;
5801;SDS011;2927;49.366;8.530;2023-11-19T02:23:54;0.80;;;0.80;;
5801;SDS011;2927;49.366;8.530;2023-11-19T02:26:33;0.80;;;0.73;;
5801;SDS011;2927;49.366;8.530;2023-11-19T02:29:04;1.00;;;1.00;;
5801;SDS011;2927;49.366;8.530;2023-11-19T02:31:31;1.10;;;0.83;;
5801;SDS011;2927;49.366;8.530;2023-11-19T02:33:57;0.80;;;0.80;;
5801;SDS011;2927;49.366;8.530;2023-11-19T02:36:25;2.00;;;0.80;;
5801;SDS011;2927;49.366;8.530;2023-11-19T02:38:50;0.63;;;0.63;;
5801;SDS011;2927;49.366;8.530;2023-11-19T02:41:16;0.73;;;0.73;;
5801;SDS011;2927;49.366;8.530;2023-11-19T02:43:41;0.80;;;0.80;;
5801;SDS011;2927;49.366;8.530;2023-11-19T02:46:07;1.10;;;1.00;;
5801;SDS011;2927;49.366;8.530;2023-11-19T02:48:33;3.40;;;0.90;;
5801;SDS011;2927;49.366;8.530;2023-11-19T02:51:02;1.20;;;1.20;;
5801;SDS011;2927;49.366;8.530;2023-11-19T02:53:28;1.50;;;1.40;;
5801;SDS011;2927;49.366;8.530;2023-11-19T02:55:54;1.60;;;1.50;;
5801;SDS011;2927;49.366;8.530;2023-11-19T02:58:31;1.70;;;1.60;;
5801;SDS011;2927;49.366;8.530;2023-11-19T03:00:56;1.33;;;1.17;;
5801;SDS011;2927;49.366;8.530;2023-11-19T03:03:25;0.97;;;0.97;;
5801;SDS011;2927;49.366;8.530;2023-11-19T03:06:03;1.33;;;1.27;;
5801;SDS011;2927;49.366;8.530;2023-11-19T03:08:32;1.13;;;1.03;;
5801;SDS011;2927;49.366;8.530;2023-11-19T03:11:00;1.20;;;1.10;;
5801;SDS011;2927;49.366;8.530;2023-11-19T03:13:27;0.77;;;0.77;;
5801;SDS011;2927;49.366;8.530;2023-11-19T03:15:52;1.10;;;1.03;;
5801;SDS011;2927;49.366;8.530;2023-11-19T03:18:19;0.73;;;0.73;;
5801;SDS011;2927;49.366;8.530;2023-11-19T03:20:46;1.30;;;1.20;;
5801;SDS011;2927;49.366;8.530;2023-11-19T03:23:12;1.90;;;1.10;;
5801;SDS011;2927;49.366;8.530;2023-11-19T03:25:37;0.70;;;0.70;;
5801;SDS011;2927;49.366;8.530;2023-11-19T03:28:03;1.13;;;1.13;;
5801;SDS011;2927;49.366;8.530;2023-11-19T03:30:29;1.00;;;1.00;;
5801;SDS011;2927;49.366;8.530;2023-11-19T03:32:56;1.07;;;1.07;;
5801;SDS011;2927;49.366;8.530;2023-11-19T03:35:27;2.17;;;1.97;;
5801;SDS011;2927;49.366;8.530;2023-11-19T03:37:53;3.50;;;1.40;;
5801;SDS011;2927;49.366;8.530;2023-11-19T03:40:19;1.13;;;1.00;;
5801;SDS011;2927;49.366;8.530;2023-11-19T03:42:45;1.70;;;1.60;;
5801;SDS011;2927;49.366;8.530;2023-11-19T03:45:11;1.03;;;1.03;;
5801;SDS011;2927;49.366;8.530;2023-11-19T03:47:37;1.20;;;1.10;;
5801;SDS011;2927;49.366;8.530;2023-11-19T03:50:02;2.20;;;1.70;;
5801;SDS011;2927;49.366;8.530;2023-11-19T03:52:29;2.07;;;1.37;;
5801;SDS011;2927;49.366;8.530;2023-11-19T03:54:54;1.50;;;1.40;;
5801;SDS011;2927;49.366;8.530;2023-11-19T03:57:22;1.10;;;1.00;;
5801;SDS011;2927;49.366;8.530;2023-11-19T03:59:50;3.00;;;1.87;;
5801;SDS011;2927;49.366;8.530;2023-11-19T04:02:16;1.43;;;1.37;;
5801;SDS011;2927;49.366;8.530;2023-11-19T04:04:42;1.37;;;1.27;;
5801;SDS011;2927;49.366;8.530;2023-11-19T04:07:07;1.77;;;1.17;;
5801;SDS011;2927;49.366;8.530;2023-11-19T04:09:33;1.47;;;1.37;;
5801;SDS011;2927;49.366;8.530;2023-11-19T04:11:59;1.30;;;1.30;;
5801;SDS011;2927;49.366;8.530;2023-11-19T04:14:25;1.20;;;1.10;;
5801;SDS011;2927;49.366;8.530;2023-11-19T04:16:51;1.27;;;1.27;;
5801;SDS011;2927;49.366;8.530;2023-11-19T04:19:17;2.03;;;1.27;;
5801;SDS011;2927;49.366;8.530;2023-11-19T04:21:43;1.40;;;1.40;;
5801;SDS011;2927;49.366;8.530;2023-11-19T04:24:09;1.20;;;1.20;;
5801;SDS011;2927;49.366;8.530;2023-11-19T04:26:42;1.33;;;1.23;;
5801;SDS011;2927;49.366;8.530;2023-11-19T04:29:09;2.73;;;1.60;;
5801;SDS011;2927;49.366;8.530;2023-11-19T04:31:39;1.70;;;1.60;;
5801;SDS011;2927;49.366;8.530;2023-11-19T04:34:06;1.23;;;1.13;;
5801;SDS011;2927;49.366;8.530;2023-11-19T04:36:32;1.43;;;1.33;;
5801;SDS011;2927;49.366;8.530;2023-11-19T04:38:58;1.57;;;1.47;;
5801;SDS011;2927;49.366;8.530;2023-11-19T04:41:25;1.80;;;1.40;;
5801;SDS011;2927;49.366;8.530;2023-11-19T04:43:52;3.57;;;1.40;;
5801;SDS011;2927;49.366;8.530;2023-11-19T04:46:18;1.20;;;1.07;;
5801;SDS011;2927;49.366;8.530;2023-11-19T04:48:44;3.43;;;1.67;;
5801;SDS011;2927;49.366;8.530;2023-11-19T04:51:09;2.70;;;1.33;;
5801;SDS011;2927;49.366;8.530;2023-11-19T04:53:35;1.70;;;1.60;;
5801;SDS011;2927;49.366;8.530;2023-11-19T04:56:01;1.57;;;1.30;;
5801;SDS011;2927;49.366;8.530;2023-11-19T04:58:32;2.90;;;1.40;;
5801;SDS011;2927;49.366;8.530;2023-11-19T05:00:57;1.70;;;1.60;;
5801;SDS011;2927;49.366;8.530;2023-11-19T05:03:23;1.17;;;1.13;;
5801;SDS011;2927;49.366;8.530;2023-11-19T05:05:48;1.77;;;1.50;;
5801;SDS011;2927;49.366;8.530;2023-11-19T05:08:14;1.93;;;1.77;;
5801;SDS011;2927;49.366;8.530;2023-11-19T05:10:39;1.50;;;1.40;;
5801;SDS011;2927;49.366;8.530;2023-11-19T05:13:05;1.70;;;1.60;;
5801;SDS011;2927;49.366;8.530;2023-11-19T05:15:30;3.60;;;1.30;;
5801;SDS011;2927;49.366;8.530;2023-11-19T05:17:56;2.10;;;1.90;;
5801;SDS011;2927;49.366;8.530;2023-11-19T05:20:22;2.20;;;1.37;;
5801;SDS011;2927;49.366;8.530;2023-11-19T05:22:47;3.03;;;2.33;;
5801;SDS011;2927;49.366;8.530;2023-11-19T05:25:13;3.20;;;2.67;;
5801;SDS011;2927;49.366;8.530;2023-11-19T05:27:39;4.20;;;2.70;;
5801;SDS011;2927;49.366;8.530;2023-11-19T05:30:05;6.20;;;3.60;;
5801;SDS011;2927;49.366;8.530;2023-11-19T05:32:35;3.47;;;3.10;;
5801;SDS011;2927;49.366;8.530;2023-11-19T05:35:01;2.80;;;2.20;;
5801;SDS011;2927;49.366;8.530;2023-11-19T05:37:27;2.47;;;2.27;;
5801;SDS011;2927;49.366;8.530;2023-11-19T05:39:52;2.47;;;2.27;;
5801;SDS011;2927;49.366;8.530;2023-11-19T05:42:18;3.00;;;2.33;;
5801;SDS011;2927;49.366;8.530;2023-11-19T05:44:43;2.53;;;2.30;;
5801;SDS011;2927;49.366;8.530;2023-11-19T05:47:09;2.27;;;2.17;;
5801;SDS011;2927;49.366;8.530;2023-11-19T05:49:34;3.47;;;2.03;;
5801;SDS011;2927;49.366;8.530;2023-11-19T05:52:00;4.03;;;1.80;;
5801;SDS011;2927;49.366;8.530;2023-11-19T05:54:28;5.23;;;2.37;;
5801;SDS011;2927;49.366;8.530;2023-11-19T05:56:53;2.60;;;1.67;;
5801;SDS011;2927;49.366;8.530;2023-11-19T05:59:19;1.90;;;1.80;;
5801;SDS011;2927;49.366;8.530;2023-11-19T06:01:45;3.50;;;2.00;;
5801;SDS011;2927;49.366;8.530;2023-11-19T06:04:11;7.93;;;1.90;;
5801;SDS011;2927;49.366;8.530;2023-11-19T06:06:37;1.50;;;1.40;;
5801;SDS011;2927;49.366;8.530;2023-11-19T06:09:03;2.23;;;1.30;;
5801;SDS011;2927;49.366;8.530;2023-11-19T06:11:29;1.83;;;1.73;;
5801;SDS011;2927;49.366;8.530;2023-11-19T06:13:54;3.30;;;1.33;;
5801;SDS011;2927;49.366;8.530;2023-11-19T06:16:21;2.53;;;1.13;;
5801;SDS011;2927;49.366;8.530;2023-11-19T06:18:46;1.67;;;1.57;;
5801;SDS011;2927;49.366;8.530;2023-11-19T06:21:12;4.47;;;1.67;;
5801;SDS011;2927;49.366;8.530;2023-11-19T06:23:38;1.87;;;1.20;;
5801;SDS011;2927;49.366;8.530;2023-11-19T06:26:03;1.57;;;1.47;;
5801;SDS011;2927;49.366;8.530;2023-11-19T06:28:30;1.50;;;1.20;;
5801;SDS011;2927;49.366;8.530;2023-11-19T06:30:56;1.70;;;1.60;;
5801;SDS011;2927;49.366;8.530;2023-11-19T06:33:23;2.57;;;2.13;;
5801;SDS011;2927;49.366;8.530;2023-11-19T06:35:49;2.40;;;1.93;;
5801;SDS011;2927;49.366;8.530;2023-11-19T06:38:15;1.70;;;1.60;;
5801;SDS011;2927;49.366;8.530;2023-11-19T06:40:41;2.70;;;1.80;;
5801;SDS011;2927;49.366;8.530;2023-11-19T06:43:06;5.90;;;1.27;;
5801;SDS011;2927;49.366;8.530;2023-11-19T06:45:34;2.73;;;2.30;;
5801;SDS011;2927;49.366;8.530;2023-11-19T06:48:03;3.77;;;2.87;;
5801;SDS011;2927;49.366;8.530;2023-11-19T06:50:29;4.20;;;3.20;;
5801;SDS011;2927;49.366;8.530;2023-11-19T06:52:58;2.37;;;2.17;;
5801;SDS011;2927;49.366;8.530;2023-11-19T06:55:23;2.60;;;2.40;;
5801;SDS011;2927;49.366;8.530;2023-11-19T06:57:49;2.80;;;2.60;;
5801;SDS011;2927;49.366;8.530;2023-11-19T07:00:15;2.77;;;1.57;;
5801;SDS011;2927;49.366;8.530;2023-11-19T07:02:40;1.60;;;1.43;;
5801;SDS011;2927;49.366;8.530;2023-11-19T07:05:06;1.17;;;1.17;;
5801;SDS011;2927;49.366;8.530;2023-11-19T07:07:33;2.50;;;1.57;;
5801;SDS011;2927;49.366;8.530;2023-11-19T07:10:00;1.33;;;1.23;;
5801;SDS011;2927;49.366;8.530;2023-11-19T07:12:27;1.20;;;1.10;;
5801;SDS011;2927;49.366;8.530;2023-11-19T07:14:52;2.70;;;1.40;;
5801;SDS011;2927;49.366;8.530;2023-11-19T07:17:20;1.17;;;1.17;;
5801;SDS011;2927;49.366;8.530;2023-11-19T07:19:46;1.57;;;1.47;;
5801;SDS011;2927;49.366;8.530;2023-11-19T07:22:12;3.03;;;1.10;;
5801;SDS011;2927;49.366;8.530;2023-11-19T07:24:40;5.30;;;1.60;;
5801;SDS011;2927;49.366;8.530;2023-11-19T07:27:06;1.87;;;1.60;;
5801;SDS011;2927;49.366;8.530;2023-11-19T07:29:33;8.10;;;1.90;;
5801;SDS011;2927;49.366;8.530;2023-11-19T07:31:59;2.00;;;1.60;;
5801;SDS011;2927;49.366;8.530;2023-11-19T07:34:27;2.13;;;1.57;;
5801;SDS011;2927;49.366;8.530;2023-11-19T07:36:52;1.80;;;1.70;;
5801;SDS011;2927;49.366;8.530;2023-11-19T07:39:18;1.50;;;1.50;;
5801;SDS011;2927;49.366;8.530;2023-11-19T07:41:45;1.40;;;1.30;;
5801;SDS011;2927;49.366;8.530;2023-11-19T07:44:11;2.70;;;2.00;;
5801;SDS011;2927;49.366;8.530;2023-11-19T07:46:36;1.50;;;1.40;;
5801;SDS011;2927;49.366;8.530;2023-11-19T07:49:02;1.83;;;1.73;;
5801;SDS011;2927;49.366;8.530;2023-11-19T07:51:28;4.10;;;2.63;;
5801;SDS011;2927;49.366;8.530;2023-11-19T07:53:53;8.83;;;3.60;;
5801;SDS011;2927;49.366;8.530;2023-11-19T07:56:19;7.27;;;4.27;;
5801;SDS011;2927;49.366;8.530;2023-11-19T07:58:44;3.30;;;3.00;;
5801;SDS011;2927;49.366;8.530;2023-11-19T08:01:10;4.87;;;4.37;;
5801;SDS011;2927;49.366;8.530;2023-11-19T08:03:35;6.37;;;4.30;;
5801;SDS011;2927;49.366;8.530;2023-11-19T08:06:01;5.23;;;4.37;;
5801;SDS011;2927;49.366;8.530;2023-11-19T08:08:28;4.50;;;3.93;;
5801;SDS011;2927;49.366;8.530;2023-11-19T08:10:58;6.47;;;5.10;;
5801;SDS011;2927;49.366;8.530;2023-11-19T08:13:24;4.73;;;4.27;;
5801;SDS011;2927;49.366;8.530;2023-11-19T08:15:50;8.57;;;5.17;;
5801;SDS011;2927;49.366;8.530;2023-11-19T08:18:16;4.80;;;4.00;;
5801;SDS011;2927;49.366;8.530;2023-11-19T08:20:43;4.50;;;3.53;;
5801;SDS011;2927;49.366;8.530;2023-11-19T08:23:09;3.70;;;3.00;;
5801;SDS011;2927;49.366;8.530;2023-11-19T08:25:35;2.80;;;2.60;;
5801;SDS011;2927;49.366;8.530;2023-11-19T08:28:01;4.07;;;3.77;;
5801;SDS011;2927;49.366;8.530;2023-11-19T08:30:28;2.23;;;2.00;;
5801;SDS011;2927;49.366;8.530;2023-11-19T08:32:54;2.50;;;2.20;;
5801;SDS011;2927;49.366;8.530;2023-11-19T08:35:19;5.33;;;3.07;;
5801;SDS011;2927;49.366;8.530;2023-11-19T08:37:45;5.90;;;3.67;;
5801;SDS011;2927;49.366;8.530;2023-11-19T08:40:11;4.33;;;3.83;;
5801;SDS011;2927;49.366;8.530;2023-11-19T08:42:38;2.77;;;2.57;;
5801;SDS011;2927;49.366;8.530;2023-11-19T08:45:04;2.60;;;2.40;;
5801;SDS011;2927;49.366;8.530;2023-11-19T08:47:30;2.33;;;2.23;;
5801;SDS011;2927;49.366;8.530;2023-11-19T08:49:55;4.57;;;2.87;;
5801;SDS011;2927;49.366;8.530;2023-11-19T08:52:21;2.27;;;2.17;;
5801;SDS011;2927;49.366;8.530;2023-11-19T08:54:47;2.53;;;2.27;;
5801;SDS011;2927;49.366;8.530;2023-11-19T08:57:12;2.47;;;1.47;;
5801;SDS011;2927;49.366;8.530;2023-11-19T08:59:38;3.10;;;2.07;;
5801;SDS011;2927;49.366;8.530;2023-11-19T09:02:04;1.40;;;1.40;;
5801;SDS011;2927;49.366;8.530;2023-11-19T09:04:31;1.70;;;1.60;;
5801;SDS011;2927;49.366;8.530;2023-11-19T09:06:57;1.63;;;1.53;;
5801;SDS011;2927;49.366;8.530;2023-11-19T09:09:23;1.30;;;1.13;;
5801;SDS011;2927;49.366;8.530;2023-11-19T09:11:48;0.73;;;0.70;;
5801;SDS011;2927;49.366;8.530;2023-11-19T09:14:15;0.90;;;0.80;;
5801;SDS011;2927;49.366;8.530;2023-11-19T09:16:41;0.83;;;0.83;;
5801;SDS011;2927;49.366;8.530;2023-11-19T09:19:06;0.90;;;0.60;;
5801;SDS011;2927;49.366;8.530;2023-11-19T09:21:32;2.77;;;0.83;;
5801;SDS011;2927;49.366;8.530;2023-11-19T09:23:59;3.43;;;1.70;;
5801;SDS011;2927;49.366;8.530;2023-11-19T09:26:25;2.00;;;1.03;;
5801;SDS011;2927;49.366;8.530;2023-11-19T09:28:50;0.70;;;0.70;;
5801;SDS011;2927;49.366;8.530;2023-11-19T09:31:16;1.17;;;0.77;;
5801;SDS011;2927;49.366;8.530;2023-11-19T09:33:42;4.50;;;1.00;;
5801;SDS011;2927;49.366;8.530;2023-11-19T09:36:09;2.40;;;0.73;;
5801;SDS011;2927;49.366;8.530;2023-11-19T09:38:38;0.97;;;0.60;;
5801;SDS011;2927;49.366;8.530;2023-11-19T09:41:05;0.73;;;0.73;;
5801;SDS011;2927;49.366;8.530;2023-11-19T09:43:34;3.50;;;1.27;;
5801;SDS011;2927;49.366;8.530;2023-11-19T09:46:04;0.97;;;0.77;;
5801;SDS011;2927;49.366;8.530;2023-11-19T09:48:35;0.87;;;0.80;;
5801;SDS011;2927;49.366;8.530;2023-11-19T09:51:02;1.03;;;0.60;;
5801;SDS011;2927;49.366;8.530;2023-11-19T09:53:29;2.27;;;0.70;;
5801;SDS011;2927;49.366;8.530;2023-11-19T09:55:55;0.83;;;0.83;;
5801;SDS011;2927;49.366;8.530;2023-11-19T09:58:21;3.13;;;0.60;;
5801;SDS011;2927;49.366;8.530;2023-11-19T10:00:47;1.00;;;0.57;;
5801;SDS011;2927;49.366;8.530;2023-11-19T10:03:14;1.50;;;1.20;;
5801;SDS011;2927;49.366;8.530;2023-11-19T10:05:39;0.93;;;0.70;;
5801;SDS011;2927;49.366;8.530;2023-11-19T10:08:07;3.60;;;0.90;;
5801;SDS011;2927;49.366;8.530;2023-11-19T10:10:33;1.53;;;0.70;;
5801;SDS011;2927;49.366;8.530;2023-11-19T10:12:59;0.77;;;0.60;;
5801;SDS011;2927;49.366;8.530;2023-11-19T10:15:26;0.90;;;0.90;;
5801;SDS011;2927;49.366;8.530;2023-11-19T10:17:52;1.30;;;0.70;;
5801;SDS011;2927;49.366;8.530;2023-11-19T10:20:21;2.77;;;1.10;;
5801;SDS011;2927;49.366;8.530;2023-11-19T10:22:46;1.43;;;0.80;;
5801;SDS011;2927;49.366;8.530;2023-11-19T10:27:48;1.47;;;0.80;;
5801;SDS011;2927;49.366;8.530;2023-11-19T10:30:21;4.13;;;0.97;;
5801;SDS011;2927;49.366;8.530;2023-11-19T10:33:12;2.50;;;1.33;;
5801;SDS011;2927;49.366;8.530;2023-11-19T10:36:19;1.70;;;0.67;;
5801;SDS011;2927;49.366;8.530;2023-11-19T10:38:38;1.40;;;0.60;;
5801;SDS011;2927;49.366;8.530;2023-11-19T10:41:05;4.63;;;0.90;;
5801;SDS011;2927;49.366;8.530;2023-11-19T10:43:31;3.43;;;0.90;;
5801;SDS011;2927;49.366;8.530;2023-11-19T10:46:09;5.70;;;0.77;;
5801;SDS011;2927;49.366;8.530;2023-11-19T10:48:36;1.93;;;0.43;;
5801;SDS011;2927;49.366;8.530;2023-11-19T10:51:01;4.33;;;0.73;;
5801;SDS011;2927;49.366;8.530;2023-11-19T10:53:33;1.57;;;0.97;;
5801;SDS011;2927;49.366;8.530;2023-11-19T10:56:06;1.77;;;0.83;;
5801;SDS011;2927;49.366;8.530;2023-11-19T10:58:36;2.10;;;1.13;;
5801;SDS011;2927;49.366;8.530;2023-11-19T11:01:07;2.57;;;0.63;;
5801;SDS011;2927;49.366;8.530;2023-11-19T11:03:48;2.10;;;0.63;;
5801;SDS011;2927;49.366;8.530;2023-11-19T11:06:18;1.50;;;0.63;;
5801;SDS011;2927;49.366;8.530;2023-11-19T11:08:44;2.30;;;0.90;;
5801;SDS011;2927;49.366;8.530;2023-11-19T11:11:11;4.00;;;0.80;;
5801;SDS011;2927;49.366;8.530;2023-11-19T11:13:41;3.70;;;1.10;;
5801;SDS011;2927;49.366;8.530;2023-11-19T11:16:07;0.93;;;0.60;;
5801;SDS011;2927;49.366;8.530;2023-11-19T11:18:33;0.80;;;0.80;;
5801;SDS011;2927;49.366;8.530;2023-11-19T11:21:03;2.00;;;0.93;;
5801;SDS011;2927;49.366;8.530;2023-11-19T11:29:05;1.33;;;0.87;;
5801;SDS011;2927;49.366;8.530;2023-11-19T11:37:32;2.40;;;1.10;;
5801;SDS011;2927;49.366;8.530;2023-11-19T11:40:16;3.70;;;1.40;;
5801;SDS011;2927;49.366;8.530;2023-11-19T11:42:46;1.77;;;1.13;;
5801;SDS011;2927;49.366;8.530;2023-11-19T11:45:13;7.10;;;0.70;;
5801;SDS011;2927;49.366;8.530;2023-11-19T11:50:12;2.50;;;0.50;;
5801;SDS011;2927;49.366;8.530;2023-11-19T11:58:17;2.10;;;0.90;;
5801;SDS011;2927;49.366;8.530;2023-11-19T12:00:43;0.93;;;0.50;;
5801;SDS011;2927;49.366;8.530;2023-11-19T12:03:11;3.30;;;1.13;;
5801;SDS011;2927;49.366;8.530;2023-11-19T12:05:44;5.73;;;0.67;;
5801;SDS011;2927;49.366;8.530;2023-11-19T12:08:13;1.50;;;0.63;;
5801;SDS011;2927;49.366;8.530;2023-11-19T12:10:47;2.40;;;0.57;;
5801;SDS011;2927;49.366;8.530;2023-11-19T12:13:17;3.43;;;1.40;;
5801;SDS011;2927;49.366;8.530;2023-11-19T12:18:29;1.90;;;0.70;;
5801;SDS011;2927;49.366;8.530;2023-11-19T12:20:55;2.07;;;0.90;;
5801;SDS011;2927;49.366;8.530;2023-11-19T12:23:24;0.60;;;0.60;;
5801;SDS011;2927;49.366;8.530;2023-11-19T12:25:50;1.10;;;0.90;;
5801;SDS011;2927;49.366;8.530;2023-11-19T12:28:16;2.07;;;0.90;;
5801;SDS011;2927;49.366;8.530;2023-11-19T12:30:42;2.27;;;1.07;;
5801;SDS011;2927;49.366;8.530;2023-11-19T12:33:09;1.53;;;1.00;;
5801;SDS011;2927;49.366;8.530;2023-11-19T12:35:39;2.50;;;1.20;;
5801;SDS011;2927;49.366;8.530;2023-11-19T12:38:08;4.30;;;0.93;;
5801;SDS011;2927;49.366;8.530;2023-11-19T12:43:32;5.53;;;1.40;;
5801;SDS011;2927;49.366;8.530;2023-11-19T12:46:02;3.03;;;1.20;;
5801;SDS011;2927;49.366;8.530;2023-11-19T12:48:41;3.57;;;2.37;;
5801;SDS011;2927;49.366;8.530;2023-11-19T12:51:07;12.90;;;4.90;;
5801;SDS011;2927;49.366;8.530;2023-11-19T12:53:46;18.03;;;7.03;;
5801;SDS011;2927;49.366;8.530;2023-11-19T12:56:23;6.90;;;3.10;;
5801;SDS011;2927;49.366;8.530;2023-11-19T12:58:49;5.17;;;2.63;;
5801;SDS011;2927;49.366;8.530;2023-11-19T13:01:18;9.73;;;5.50;;
5801;SDS011;2927;49.366;8.530;2023-11-19T13:03:45;2.40;;;1.30;;
5801;SDS011;2927;49.366;8.530;2023-11-19T13:06:12;1.80;;;1.13;;
5801;SDS011;2927;49.366;8.530;2023-11-19T13:11:08;1.20;;;1.00;;
5801;SDS011;2927;49.366;8.530;2023-11-19T13:13:56;3.17;;;0.70;;
5801;SDS011;2927;49.366;8.530;2023-11-19T13:16:29;2.87;;;1.00;;
5801;SDS011;2927;49.366;8.530;2023-11-19T13:18:55;2.23;;;1.40;;
5801;SDS011;2927;49.366;8.530;2023-11-19T13:21:22;2.83;;;0.70;;
5801;SDS011;2927;49.366;8.530;2023-11-19T13:23:48;1.43;;;1.33;;
5801;SDS011;2927;49.366;8.530;2023-11-19T13:26:13;2.20;;;0.83;;
5801;SDS011;2927;49.366;8.530;2023-11-19T13:28:39;2.70;;;0.80;;
5801;SDS011;2927;49.366;8.530;2023-11-19T13:31:05;0.63;;;0.57;;
5801;SDS011;2927;49.366;8.530;2023-11-19T13:33:31;0.70;;;0.67;;
5801;SDS011;2927;49.366;8.530;2023-11-19T13:35:57;1.17;;;0.60;;
5801;SDS011;2927;49.366;8.530;2023-11-19T13:38:26;2.27;;;0.97;;
5801;SDS011;2927;49.366;8.530;2023-11-19T13:40:52;0.70;;;0.67;;
5801;SDS011;2927;49.366;8.530;2023-11-19T13:43:18;1.93;;;1.07;;
5801;SDS011;2927;49.366;8.530;2023-11-19T13:45:43;4.87;;;0.77;;
5801;SDS011;2927;49.366;8.530;2023-11-19T13:48:10;0.50;;;0.50;;
5801;SDS011;2927;49.366;8.530;2023-11-19T13:50:35;4.87;;;0.60;;
5801;SDS011;2927;49.366;8.530;2023-11-19T13:53:01;3.10;;;0.50;;
5801;SDS011;2927;49.366;8.530;2023-11-19T13:55:26;1.00;;;0.70;;
5801;SDS011;2927;49.366;8.530;2023-11-19T13:57:52;3.13;;;0.60;;
5801;SDS011;2927;49.366;8.530;2023-11-19T14:00:18;1.80;;;0.50;;
5801;SDS011;2927;49.366;8.530;2023-11-19T14:02:48;3.50;;;0.60;;
5801;SDS011;2927;49.366;8.530;2023-11-19T14:05:15;0.70;;;0.50;;
5801;SDS011;2927;49.366;8.530;2023-11-19T14:07:42;1.47;;;0.97;;
5801;SDS011;2927;49.366;8.530;2023-11-19T14:10:09;3.90;;;0.80;;
5801;SDS011;2927;49.366;8.530;2023-11-19T14:12:36;1.90;;;1.17;;
5801;SDS011;2927;49.366;8.530;2023-11-19T14:15:03;1.00;;;1.00;;
5801;SDS011;2927;49.366;8.530;2023-11-19T14:17:31;1.37;;;0.93;;
5801;SDS011;2927;49.366;8.530;2023-11-19T14:19:57;3.50;;;1.20;;
5801;SDS011;2927;49.366;8.530;2023-11-19T14:22:23;2.17;;;1.37;;
5801;SDS011;2927;49.366;8.530;2023-11-19T14:24:49;4.20;;;0.70;;
5801;SDS011;2927;49.366;8.530;2023-11-19T14:27:15;5.80;;;1.40;;
5801;SDS011;2927;49.366;8.530;2023-11-19T14:29:42;3.70;;;0.70;;
5801;SDS011;2927;49.366;8.530;2023-11-19T14:32:08;1.67;;;0.60;;
5801;SDS011;2927;49.366;8.530;2023-11-19T14:34:33;2.53;;;0.50;;
5801;SDS011;2927;49.366;8.530;2023-11-19T14:36:59;4.10;;;1.73;;
5801;SDS011;2927;49.366;8.530;2023-11-19T14:39:25;1.37;;;1.27;;
5801;SDS011;2927;49.366;8.530;2023-11-19T14:41:51;1.67;;;0.63;;
5801;SDS011;2927;49.366;8.530;2023-11-19T14:44:18;4.70;;;2.33;;
5801;SDS011;2927;49.366;8.530;2023-11-19T14:46:45;1.77;;;0.90;;
5801;SDS011;2927;49.366;8.530;2023-11-19T14:49:10;1.70;;;1.07;;
5801;SDS011;2927;49.366;8.530;2023-11-19T14:51:36;8.13;;;1.37;;
5801;SDS011;2927;49.366;8.530;2023-11-19T14:54:03;8.03;;;1.23;;
5801;SDS011;2927;49.366;8.530;2023-11-19T14:56:29;3.00;;;1.63;;
5801;SDS011;2927;49.366;8.530;2023-11-19T14:58:55;6.10;;;1.53;;
5801;SDS011;2927;49.366;8.530;2023-11-19T15:01:20;4.10;;;1.30;;
5801;SDS011;2927;49.366;8.530;2023-11-19T15:03:46;7.23;;;1.50;;
5801;SDS011;2927;49.366;8.530;2023-11-19T15:06:12;6.60;;;1.07;;
5801;SDS011;2927;49.366;8.530;2023-11-19T15:08:38;3.37;;;0.80;;
5801;SDS011;2927;49.366;8.530;2023-11-19T15:11:04;3.63;;;0.80;;
5801;SDS011;2927;49.366;8.530;2023-11-19T15:13:31;3.43;;;1.00;;
5801;SDS011;2927;49.366;8.530;2023-11-19T15:15:57;2.93;;;0.73;;
5801;SDS011;2927;49.366;8.530;2023-11-19T15:18:23;1.10;;;0.63;;
5801;SDS011;2927;49.366;8.530;2023-11-19T15:20:48;3.07;;;0.63;;
5801;SDS011;2927;49.366;8.530;2023-11-19T15:23:14;2.80;;;0.50;;
5801;SDS011;2927;49.366;8.530;2023-11-19T15:25:40;3.40;;;0.70;;
5801;SDS011;2927;49.366;8.530;2023-11-19T15:28:06;0.60;;;0.60;;
5801;SDS011;2927;49.366;8.530;2023-11-19T15:30:32;3.60;;;0.80;;
5801;SDS011;2927;49.366;8.530;2023-11-19T15:32:57;3.63;;;0.77;;
5801;SDS011;2927;49.366;8.530;2023-11-19T15:35:23;1.23;;;0.70;;
5801;SDS011;2927;49.366;8.530;2023-11-19T15:37:48;1.97;;;0.90;;
5801;SDS011;2927;49.366;8.530;2023-11-19T15:40:14;2.80;;;0.60;;
5801;SDS011;2927;49.366;8.530;2023-11-19T15:42:40;1.80;;;0.70;;
5801;SDS011;2927;49.366;8.530;2023-11-19T15:45:08;2.03;;;0.70;;